createdAt,value
2022-08-24T00:00:22.625Z,97332.59
2022-08-24T00:02:50.112Z,97335.94
2022-08-24T00:05:21.129Z,97333.50
2022-08-24T00:07:49.305Z,97339.34
2022-08-24T00:10:17.540Z,97332.88
2022-08-24T00:12:44.107Z,97329.38
2022-08-24T00:15:12.749Z,97329.91
2022-08-24T00:17:39.994Z,97328.09
2022-08-24T00:20:09.229Z,97331.34
2022-08-24T00:22:36.025Z,97319.53
2022-08-24T00:25:03.996Z,97325.25
2022-08-24T00:27:30.813Z,97322.16
2022-08-24T00:29:57.596Z,97321.19
2022-08-24T00:32:24.186Z,97317.44
2022-08-24T00:34:58.700Z,97317.31
2022-08-24T00:37:28.737Z,97311.13
2022-08-24T00:39:56.177Z,97323.84
2022-08-24T00:42:23.425Z,97317.09
2022-08-24T00:44:50.422Z,97312.00
2022-08-24T00:47:33.184Z,97314.19
2022-08-24T00:50:02.541Z,97311.34
2022-08-24T00:52:52.927Z,97313.78
2022-08-24T00:55:34.140Z,97314.94
2022-08-24T00:58:08.096Z,97315.09
2022-08-24T01:00:45.517Z,97310.78
2022-08-24T01:03:15.981Z,97309.09
2022-08-24T01:05:42.990Z,97318.28
2022-08-24T01:08:11.506Z,97315.31
2022-08-24T01:10:41.895Z,97316.06
2022-08-24T01:13:11.560Z,97318.19
2022-08-24T01:15:42.137Z,97320.84
2022-08-24T01:18:33.630Z,97324.56
2022-08-24T01:21:06.939Z,97320.56
2022-08-24T01:23:52.431Z,97316.50
2022-08-24T01:26:59.858Z,97316.63
2022-08-24T01:29:31.592Z,97316.41
2022-08-24T01:31:59.103Z,97317.41
2022-08-24T01:34:25.863Z,97320.84
2022-08-24T01:36:59.585Z,97317.13
2022-08-24T01:39:30.909Z,97317.00
2022-08-24T01:41:58.537Z,97312.91
2022-08-24T01:44:27.587Z,97314.00
2022-08-24T01:46:55.931Z,97320.56
2022-08-24T01:49:28.123Z,97318.16
2022-08-24T01:51:55.472Z,97321.06
2022-08-24T01:54:22.401Z,97322.25
2022-08-24T01:56:49.255Z,97320.31
2022-08-24T01:59:16.326Z,97322.50
2022-08-24T02:01:48.888Z,97321.06
2022-08-24T02:04:17.853Z,97319.84
2022-08-24T02:43:38.552Z,97342.19
2022-08-24T02:46:06.311Z,97346.88
2022-08-24T02:52:40.306Z,97345.78
2022-08-24T03:45:13.118Z,97342.03
2022-08-24T03:48:14.138Z,97348.41
2022-08-24T03:55:08.051Z,97345.88
2022-08-24T03:57:37.668Z,97340.81
2022-08-24T04:00:49.400Z,97340.25
2022-08-24T04:03:18.979Z,97341.66
2022-08-24T04:05:45.621Z,97341.00
2022-08-24T04:08:15.072Z,97344.53
2022-08-24T04:10:45.438Z,97349.94
2022-08-24T04:13:12.161Z,97352.94
2022-08-24T04:15:42.735Z,97351.25
2022-08-24T04:18:09.774Z,97345.16
2022-08-24T04:20:43.853Z,97346.94
2022-08-24T04:23:13.099Z,97345.47
2022-08-24T04:25:48.048Z,97353.41
2022-08-24T04:28:21.100Z,97359.63
2022-08-24T04:30:52.418Z,97356.78
2022-08-24T04:33:19.791Z,97360.38
2022-08-24T04:35:48.410Z,97364.03
2022-08-24T04:38:18.933Z,97364.50
2022-08-24T04:40:47.004Z,97366.00
2022-08-24T04:43:19.780Z,97373.06
2022-08-24T04:45:48.166Z,97373.69
2022-08-24T04:48:16.115Z,97380.16
2022-08-24T04:50:44.006Z,97394.56
2022-08-24T04:53:13.522Z,97389.53
2022-08-24T04:55:49.585Z,97389.78
2022-08-24T04:58:17.375Z,97392.78
2022-08-24T05:00:44.828Z,97395.78
2022-08-24T05:03:12.367Z,97398.13
2022-08-24T05:05:45.777Z,97393.84
2022-08-24T05:08:13.632Z,97398.50
2022-08-24T05:10:42.987Z,97404.28
2022-08-24T05:13:09.785Z,97402.75
2022-08-24T05:15:40.477Z,97401.41
2022-08-24T05:18:07.516Z,97405.06
2022-08-24T05:20:35.929Z,97412.69
2022-08-24T05:23:04.476Z,97416.41
2022-08-24T05:25:31.362Z,97418.88
2022-08-24T05:27:58.247Z,97413.63
2022-08-24T05:30:24.879Z,97417.47
2022-08-24T05:32:51.416Z,97417.69
2022-08-24T05:35:18.549Z,97417.84
2022-08-24T05:37:45.228Z,97414.31
2022-08-24T05:40:14.798Z,97413.25
2022-08-24T05:42:41.415Z,97431.66
2022-08-24T05:45:08.693Z,97422.16
2022-08-24T05:47:35.321Z,97432.69
2022-08-24T05:50:02.900Z,97430.25
2022-08-24T05:52:29.638Z,97429.28
2022-08-24T05:54:59.065Z,97419.94
2022-08-24T05:57:30.796Z,97430.81
2022-08-24T05:59:57.453Z,97429.63
2022-08-24T06:02:24.193Z,97430.28
2022-08-24T06:04:50.912Z,97419.06
2022-08-24T06:07:18.390Z,97411.53
2022-08-24T06:09:44.958Z,97412.81
2022-08-24T06:12:12.443Z,97410.53
2022-08-24T06:14:39.157Z,97402.66
2022-08-24T06:17:07.816Z,97403.19
2022-08-24T06:19:36.174Z,97400.88
2022-08-24T06:22:02.925Z,97401.94
2022-08-24T06:24:47.991Z,97407.53
2022-08-24T06:27:21.784Z,97404.56
2022-08-24T06:29:52.331Z,97398.59
2022-08-24T06:32:18.831Z,97403.25
2022-08-24T06:34:45.379Z,97401.25
2022-08-24T06:37:11.868Z,97400.47
2022-08-24T06:39:38.524Z,97390.75
2022-08-24T06:42:05.322Z,97390.47
2022-08-24T06:44:32.757Z,97386.50
2022-08-24T06:46:59.446Z,97395.91
2022-08-24T06:49:26.129Z,97398.09
2022-08-24T06:51:52.751Z,97402.44
2022-08-24T06:54:22.389Z,97398.25
2022-08-24T06:56:49.040Z,97397.81
2022-08-24T06:59:15.658Z,97403.00
2022-08-24T07:01:42.283Z,97397.44
2022-08-24T07:04:09.766Z,97397.16
2022-08-24T07:06:37.040Z,97392.84
2022-08-24T07:09:04.042Z,97390.25
2022-08-24T07:11:35.151Z,97395.38
2022-08-24T07:14:02.082Z,97393.94
2022-08-24T07:16:28.838Z,97390.84
2022-08-24T07:18:55.465Z,97388.84
2022-08-24T07:21:22.081Z,97391.84
2022-08-24T07:23:50.002Z,97395.38
2022-08-24T07:26:21.451Z,97394.59
2022-08-24T07:28:53.765Z,97388.66
2022-08-24T07:31:21.195Z,97387.13
2022-08-24T07:33:48.056Z,97375.00
2022-08-24T07:36:22.012Z,97378.00
2022-08-24T07:38:52.468Z,97375.72
2022-08-24T07:41:40.371Z,97384.63
2022-08-24T07:44:08.220Z,97384.03
2022-08-24T07:46:34.946Z,97375.00
2022-08-24T07:49:11.629Z,97380.09
2022-08-24T07:51:46.600Z,97371.66
2022-08-24T07:54:13.675Z,97379.34
2022-08-24T07:56:41.339Z,97383.50
2022-08-24T07:59:12.441Z,97375.56
2022-08-24T08:01:40.722Z,97378.00
2022-08-24T08:04:07.875Z,97377.09
2022-08-24T08:06:34.745Z,97371.25
2022-08-24T08:09:02.821Z,97375.50
2022-08-24T08:11:29.378Z,97375.41
2022-08-24T08:13:55.896Z,97375.44
2022-08-24T08:16:22.634Z,97379.56
2022-08-24T08:18:56.429Z,97378.59
2022-08-24T08:22:00.248Z,97374.59
2022-08-24T08:24:26.919Z,97378.72
2022-08-24T08:26:54.413Z,97374.41
2022-08-24T08:29:21.258Z,97378.75
2022-08-24T08:31:47.972Z,97372.41
2022-08-24T08:34:14.567Z,97381.31
2022-08-24T08:36:42.068Z,97364.84
2022-08-24T08:39:10.745Z,97369.75
2022-08-24T08:42:15.021Z,97363.59
2022-08-24T08:44:59.817Z,97364.75
2022-08-24T08:47:51.126Z,97363.69
2022-08-24T08:50:44.404Z,97360.81
2022-08-24T08:53:27.822Z,97351.34
2022-08-24T08:56:15.374Z,97351.97
2022-08-24T08:59:10.343Z,97354.09
2022-08-24T09:01:58.702Z,97358.84
2022-08-24T09:04:43.262Z,97363.44
2022-08-24T09:07:18.578Z,97365.25
2022-08-24T09:10:00.196Z,97358.59
2022-08-24T09:13:04.846Z,97352.44
2022-08-24T09:15:57.593Z,97355.75
2022-08-24T09:18:41.482Z,97358.69
2022-08-24T09:21:35.615Z,97356.97
2022-08-24T09:24:23.463Z,97352.44
2022-08-24T09:27:22.253Z,97358.72
2022-08-24T09:30:07.539Z,97361.81
2022-08-24T09:33:02.063Z,97361.03
2022-08-24T09:35:40.502Z,97363.34
2022-08-24T09:38:13.338Z,97352.50
2022-08-24T09:41:15.280Z,97356.75
2022-08-24T09:44:13.538Z,97356.84
2022-08-24T09:46:58.360Z,97353.38
2022-08-24T09:49:48.546Z,97352.13
2022-08-24T09:52:39.798Z,97336.91
2022-08-24T09:55:30.600Z,97349.06
2022-08-24T09:58:31.197Z,97341.81
2022-08-24T10:01:10.101Z,97337.09
2022-08-24T10:03:55.771Z,97333.84
2022-08-24T10:07:01.288Z,97340.03
2022-08-24T10:10:05.230Z,97331.84
2022-08-24T10:13:09.631Z,97331.13
2022-08-24T10:15:39.272Z,97339.41
2022-08-24T10:18:23.318Z,97326.34
2022-08-24T10:21:04.863Z,97320.47
2022-08-24T10:23:58.913Z,97329.81
2022-08-24T10:26:45.305Z,97324.66
2022-08-24T10:29:43.891Z,97316.25
2022-08-24T10:32:25.561Z,97313.75
2022-08-24T10:35:03.930Z,97323.38
2022-08-24T10:37:47.631Z,97321.09
2022-08-24T10:40:20.177Z,97312.66
2022-08-24T10:43:31.414Z,97313.97
2022-08-24T10:46:36.460Z,97312.84
2022-08-24T10:49:25.174Z,97305.28
2022-08-24T10:51:56.614Z,97311.31
2022-08-24T10:54:24.014Z,97309.47
2022-08-24T10:56:53.310Z,97299.34
2022-08-24T10:59:31.707Z,97296.69
2022-08-24T11:02:12.736Z,97300.00
2022-08-24T11:04:40.269Z,97294.44
2022-08-24T11:07:18.562Z,97305.59
2022-08-24T11:09:53.535Z,97298.34
2022-08-24T11:12:30.111Z,97303.22
2022-08-24T11:15:00.475Z,97307.13
2022-08-24T11:17:29.618Z,97313.88
2022-08-24T11:19:59.066Z,97311.34
2022-08-24T11:22:41.818Z,97309.84
2022-08-24T11:25:23.215Z,97301.69
2022-08-24T11:27:57.070Z,97304.91
2022-08-24T11:30:26.821Z,97311.75
2022-08-24T11:33:01.355Z,97309.50
2022-08-24T11:35:36.573Z,97309.09
2022-08-24T11:38:05.962Z,97307.03
2022-08-24T11:40:39.584Z,97303.00
2022-08-24T11:43:26.452Z,97298.16
2022-08-24T11:46:02.955Z,97296.06
2022-08-24T11:49:09.732Z,97296.38
2022-08-24T11:51:39.236Z,97292.38
2022-08-24T11:54:24.705Z,97294.88
2022-08-24T11:57:09.520Z,97294.22
2022-08-24T11:59:40.840Z,97288.72
2022-08-24T12:02:17.953Z,97297.78
2022-08-24T12:05:06.086Z,97306.31
2022-08-24T12:07:51.734Z,97303.34
2022-08-24T12:10:57.126Z,97307.84
2022-08-24T12:13:26.670Z,97290.66
2022-08-24T12:16:08.254Z,97289.53
2022-08-24T12:19:05.048Z,97294.59
2022-08-24T12:21:36.705Z,97296.25
2022-08-24T12:24:08.231Z,97291.22
2022-08-24T12:26:43.722Z,97288.69
2022-08-24T12:29:41.926Z,97296.50
2022-08-24T12:32:37.704Z,97293.53
2022-08-24T12:35:18.766Z,97287.00
2022-08-24T12:37:58.149Z,97285.84
2022-08-24T12:40:48.157Z,97285.72
2022-08-24T12:43:47.022Z,97278.13
2022-08-24T12:46:15.966Z,97283.34
2022-08-24T12:48:54.968Z,97278.75
2022-08-24T12:51:51.246Z,97272.13
2022-08-24T12:54:50.161Z,97275.00
2022-08-24T12:57:35.200Z,97280.63
2022-08-24T13:00:09.986Z,97279.50
2022-08-24T13:02:48.447Z,97287.59
2022-08-24T13:05:19.193Z,97280.53
2022-08-24T13:07:49.239Z,97276.88
2022-08-24T13:10:24.835Z,97280.81
2022-08-24T13:13:13.409Z,97273.41
2022-08-24T13:15:39.943Z,97276.94
2022-08-24T13:18:10.358Z,97269.78
2022-08-24T13:20:37.332Z,97278.03
2022-08-24T13:23:13.298Z,97272.66
2022-08-24T13:25:52.006Z,97267.13
2022-08-24T13:28:21.623Z,97265.72
2022-08-24T13:31:33.639Z,97268.09
2022-08-24T13:34:09.030Z,97265.53
2022-08-24T13:36:43.052Z,97273.28
2022-08-24T13:39:35.745Z,97275.53
2022-08-24T13:42:36.663Z,97266.97
2022-08-24T15:03:54.876Z,97250.03
2022-08-24T15:06:39.802Z,97251.00
2022-08-24T15:09:11.655Z,97246.81
2022-08-24T15:11:41.210Z,97251.41
2022-08-24T15:14:22.411Z,97246.78
2022-08-24T15:17:13.199Z,97248.59
2022-08-24T15:20:06.219Z,97242.16
2022-08-24T15:22:35.922Z,97238.69
2022-08-24T15:25:05.982Z,97248.03
2022-08-24T15:27:33.064Z,97242.00
2022-08-24T15:30:03.366Z,97235.75
2022-08-24T15:32:44.977Z,97251.38
2022-08-24T15:35:33.706Z,97240.50
2022-08-24T15:38:37.027Z,97236.50
2022-08-24T15:41:12.731Z,97243.59
2022-08-24T15:44:01.374Z,97243.78
2022-08-24T15:46:40.932Z,97248.53
2022-08-24T15:49:17.108Z,97237.34
2022-08-24T15:51:43.610Z,97242.63
2022-08-24T15:54:25.512Z,97240.56
2022-08-24T15:57:05.087Z,97235.41
2022-08-24T15:59:46.944Z,97238.94
2022-08-24T16:02:33.996Z,97240.75
2022-08-24T16:05:25.437Z,97236.16
2022-08-24T16:08:06.677Z,97236.09
2022-08-24T16:10:49.277Z,97235.25
2022-08-24T16:13:18.535Z,97235.88
2022-08-24T16:16:08.876Z,97235.22
2022-08-24T16:18:49.176Z,97238.31
2022-08-24T16:21:23.990Z,97245.38
2022-08-24T16:24:02.471Z,97240.53
2022-08-24T16:26:52.003Z,97241.72
2022-08-24T16:29:37.050Z,97238.69
2022-08-24T16:32:39.254Z,97239.97
2022-08-24T16:35:20.849Z,97244.94
2022-08-24T16:37:47.900Z,97239.91
2022-08-24T16:40:14.735Z,97242.00
2022-08-24T16:42:41.617Z,97237.63
2022-08-24T16:45:12.434Z,97232.63
2022-08-24T16:47:38.983Z,97241.63
2022-08-24T16:50:07.203Z,97239.13
2022-08-24T16:52:33.824Z,97246.78
2022-08-24T16:55:02.941Z,97243.38
2022-08-24T16:57:36.286Z,97251.06
2022-08-24T17:00:07.273Z,97248.75
2022-08-24T17:02:34.672Z,97246.88
2022-08-24T17:05:01.452Z,97246.66
2022-08-24T17:07:30.247Z,97252.75
2022-08-24T17:09:57.959Z,97244.16
2022-08-24T17:12:24.851Z,97249.16
2022-08-24T17:14:51.408Z,97253.59
2022-08-24T17:17:23.492Z,97254.09
2022-08-24T17:19:53.396Z,97260.59
2022-08-24T17:22:21.351Z,97252.81
2022-08-24T17:24:48.329Z,97259.41
2022-08-24T17:27:16.256Z,97258.72
2022-08-24T17:29:44.453Z,97263.56
2022-08-24T17:32:11.868Z,97255.34
2022-08-24T17:34:38.760Z,97260.16
2022-08-24T17:37:06.822Z,97260.13
2022-08-24T17:39:34.019Z,97258.94
2022-08-24T17:42:02.100Z,97259.13
2022-08-24T17:44:33.250Z,97260.97
2022-08-24T17:47:01.687Z,97270.13
2022-08-24T17:49:28.278Z,97269.56
2022-08-24T17:51:55.238Z,97277.41
2022-08-24T17:54:22.503Z,97270.25
2022-08-24T17:56:50.899Z,97273.69
2022-08-24T17:59:25.021Z,97273.38
2022-08-24T18:01:52.145Z,97270.78
2022-08-24T18:04:20.529Z,97274.22
2022-08-24T18:06:47.640Z,97272.63
2022-08-24T18:09:35.128Z,97273.06
2022-08-24T18:12:04.323Z,97279.50
2022-08-24T18:14:31.074Z,97278.69
2022-08-24T18:16:58.299Z,97281.06
2022-08-24T18:19:25.214Z,97286.63
2022-08-24T18:21:51.780Z,97285.31
2022-08-24T18:24:18.469Z,97281.41
2022-08-24T18:26:47.763Z,97290.94
2022-08-24T18:29:18.771Z,97293.81
2022-08-24T18:31:47.381Z,97295.84
2022-08-24T18:34:17.759Z,97301.25
2022-08-24T18:36:44.164Z,97303.25
2022-08-24T18:39:10.612Z,97311.16
2022-08-24T18:41:38.667Z,97310.47
2022-08-24T18:44:06.305Z,97307.28
2022-08-24T18:46:33.104Z,97316.31
2022-08-24T18:48:59.801Z,97309.28
2022-08-24T18:51:34.392Z,97316.81
2022-08-24T18:54:02.379Z,97314.47
2022-08-24T18:56:28.987Z,97326.34
2022-08-24T18:58:55.463Z,97324.69
2022-08-24T19:01:22.848Z,97323.50
2022-08-24T19:03:49.771Z,97330.22
2022-08-24T19:06:16.195Z,97329.34
2022-08-24T19:08:42.755Z,97328.50
2022-08-24T19:11:09.266Z,97337.16
2022-08-24T19:13:38.292Z,97331.59
2022-08-24T19:16:04.819Z,97337.78
2022-08-24T19:18:31.336Z,97337.25
2022-08-24T19:20:58.586Z,97337.00
2022-08-24T19:23:27.688Z,97338.94
2022-08-24T19:25:54.799Z,97340.53
2022-08-24T19:28:21.619Z,97340.69
2022-08-24T19:30:49.074Z,97339.31
2022-08-24T19:33:19.518Z,97343.28
2022-08-24T19:35:46.002Z,97339.56
2022-08-24T19:38:12.407Z,97344.81
2022-08-24T19:40:39.226Z,97334.47
2022-08-24T19:43:08.563Z,97341.25
2022-08-24T19:45:53.780Z,97337.16
2022-08-24T19:48:22.340Z,97340.22
2022-08-24T19:50:48.836Z,97332.09
2022-08-24T19:53:15.315Z,97334.69
2022-08-24T19:55:41.791Z,97334.78
2022-08-24T19:58:26.874Z,97339.09
2022-08-24T20:01:04.872Z,97341.97
2022-08-24T20:03:31.430Z,97339.91
2022-08-24T20:05:57.906Z,97343.31
2022-08-24T20:08:24.542Z,97343.50
2022-08-24T20:10:52.994Z,97348.00
2022-08-24T20:13:19.907Z,97347.63
2022-08-24T20:15:46.472Z,97341.69
2022-08-24T20:18:13.922Z,97343.81
2022-08-24T20:20:40.428Z,97348.91
2022-08-24T20:23:07.233Z,97347.22
2022-08-24T20:25:34.973Z,97345.84
2022-08-24T20:28:27.848Z,97344.88
2022-08-24T20:30:49.568Z,97346.06
2022-08-24T20:33:18.068Z,97347.22
2022-08-24T20:35:45.210Z,97348.06
2022-08-24T20:38:15.822Z,97349.72
2022-08-24T20:40:42.261Z,97351.31
2022-08-24T20:43:08.678Z,97354.38
2022-08-24T20:45:39.261Z,97353.41
2022-08-24T20:48:05.697Z,97352.31
2022-08-24T20:50:33.505Z,97346.59
2022-08-24T20:53:00.039Z,97347.31
2022-08-24T20:55:26.449Z,97345.50
2022-08-24T20:57:54.455Z,97344.94
2022-08-24T21:00:22.406Z,97351.53
2022-08-24T21:02:49.313Z,97339.78
2022-08-24T21:05:16.072Z,97343.53
2022-08-24T21:07:49.321Z,97346.19
2022-08-24T21:10:21.381Z,97342.84
2022-08-24T21:12:51.983Z,97340.59
2022-08-24T21:15:18.556Z,97344.84
2022-08-24T21:17:45.181Z,97342.31
2022-08-24T21:20:12.751Z,97343.59
2022-08-24T21:22:39.296Z,97343.31
2022-08-24T21:25:06.758Z,97352.13
2022-08-24T21:27:35.212Z,97340.25
2022-08-24T21:30:05.657Z,97345.69
2022-08-24T21:32:50.719Z,97350.88
2022-08-24T21:35:17.296Z,97348.91
2022-08-24T21:37:43.957Z,97353.00
2022-08-24T21:40:10.983Z,97354.22
2022-08-24T21:42:37.556Z,97354.81
2022-08-24T21:45:05.155Z,97345.97
2022-08-24T21:47:31.561Z,97339.13
2022-08-24T21:49:58.172Z,97350.44
2022-08-24T21:52:24.580Z,97353.91
2022-08-24T21:54:52.116Z,97347.16
2022-08-24T21:57:18.565Z,97335.53
2022-08-24T21:59:45.017Z,97339.88
2022-08-24T22:02:16.807Z,97337.50
2022-08-24T22:04:47.223Z,97336.09
2022-08-24T22:07:23.036Z,97329.38
2022-08-24T22:09:49.628Z,97331.91
2022-08-24T22:12:16.061Z,97330.19
2022-08-24T22:14:42.619Z,97330.06
2022-08-24T22:17:09.047Z,97326.41
2022-08-24T22:19:35.740Z,97320.09
2022-08-24T22:22:02.142Z,97319.28
2022-08-24T22:24:28.586Z,97322.09
2022-08-24T22:26:55.227Z,97317.16
2022-08-24T22:29:22.177Z,97315.16
2022-08-24T22:31:48.877Z,97312.78
2022-08-24T22:34:20.722Z,97319.06
2022-08-24T22:36:47.540Z,97316.19
2022-08-24T22:39:13.971Z,97323.34
2022-08-24T22:41:40.656Z,97313.16
2022-08-24T22:44:20.126Z,97314.84
2022-08-24T22:46:49.518Z,97304.41
2022-08-24T22:49:17.112Z,97304.63
2022-08-24T22:51:44.714Z,97297.25
2022-08-24T22:54:11.818Z,97304.75
2022-08-24T22:56:43.348Z,97300.25
2022-08-24T22:59:15.817Z,97297.13
2022-08-24T23:01:45.376Z,97298.41
2022-08-24T23:04:16.424Z,97299.19
2022-08-24T23:06:42.947Z,97289.75
2022-08-24T23:09:10.494Z,97285.59
2022-08-24T23:11:37.238Z,97293.09
2022-08-24T23:14:05.260Z,97288.34
2022-08-24T23:16:34.566Z,97279.56
2022-08-24T23:19:19.596Z,97286.56
2022-08-24T23:21:46.596Z,97278.50
2022-08-24T23:24:13.809Z,97284.59
2022-08-24T23:26:41.619Z,97285.25
2022-08-24T23:29:10.609Z,97279.84
2022-08-24T23:31:37.748Z,97276.59
2022-08-24T23:34:07.186Z,97272.75
2022-08-24T23:36:34.859Z,97277.50
2022-08-24T23:39:02.234Z,97277.53
2022-08-24T23:41:32.202Z,97267.78
2022-08-24T23:44:04.808Z,97266.34
2022-08-24T23:46:31.421Z,97266.88
2022-08-24T23:49:02.811Z,97271.53
2022-08-24T23:51:30.673Z,97263.56
2022-08-24T23:53:57.389Z,97268.75
2022-08-24T23:56:31.678Z,97267.66
2022-08-24T23:59:08.128Z,97262.72
